Airfield :
LOGIN :

Register | Disclaimer

   EN    FR    IT 

 










Legend :    VFR   Marginal VFR   IFR   Intensive IFR   Very Intensive IFR
Visi :
Ceiling :
>= 8 km
>= 3000ft
5 to 8 km
1000 to 3000 ft
1500m to 5 km
500 to 1000 ft
800 to 1500m
200 to 500 ft
< 800m
< 200 ft
Symbols :   Thunderstorms  Fog  Heavy snow  Heavy precipitations  Wind > 20 kt
SIGMETs :     Misc.  Thunderstorms  Icing  Turbulence  Mountain Waves  Volcanic Ashes






- Airport Elevation : 40 ft
- IATA code : RMI


LIPR - Federico Fellini Int. Rimini

CURRENT METAR :
  • 152350Z AUTO 28002KT 9999 BKN060/// 07/05 Q1019

EXPIRED METARs :
  • 152320Z AUTO 25002KT 9999 BKN058/// 08/05 Q1020
  • 152250Z AUTO 27003KT 9999 BKN059/// 08/05 Q1020
  • 152220Z AUTO 26003KT 220V300 9999 BKN060/// 08/05 Q1019
  • 152150Z VRB02KT 7000 SCT060 08/05 Q1019
  • 152120Z 28004KT 8000 BKN060 08/05 Q1019

TAF TAF LIPR
Valid from the 16 at 00:00 until the 16 at 09:00 UTC


152300Z 1600/1609 VRB05KT 7000 NSC
TEMPO 1600/1606 4000 BR



MET'MAP, your aeronautical weather chart ! - Copyright ORBIFLY December 2007 - Disclaimer

ORBIFLY MET'MAP TEAM :

Programming & Development : Alexandra Zaïnal
Concept & original design : Baudouin d'Aumeries
Assistance for programming : Marc-Olivier Méhu
Technical & hardware support : Manuel Goepfert

Contact : metmap@orbifly.com




SOURCES & CREDITS :

   NOAA